Overview Statistics Trail Chart Weather Telemetry Raw packets
 

This is the latest recevied weather packets stored in our database for station/object KV9E. If no packets are shown the sender has not sent any weather packets the latest 10 day(s).

<< 98 99 100 101 102 103 104 >>
Time Temp. Humidity Pressure Rain* Wind** Luminosity Snow
1787868021 28.89° C 64% 1014.3 hPa 0 mm - 228 W/m² -
1787867715 28.89° C 62% 1014.5 hPa 0 mm - 237 W/m² -
1787867410 28.89° C 64% 1014.5 hPa 0 mm - 248 W/m² -
1787867106 28.89° C 63% 1014.8 hPa 0 mm - 259 W/m² -
1787866806 28.89° C 63% 1014.7 hPa 0 mm - 278 W/m² -
1787866501 29.44° C 64% 1014.6 hPa 0 mm - 297 W/m² -
1787866199 29.44° C 62% 1014.6 hPa 0 mm - 329 W/m² -
1787865895 29.44° C 61% 1014.6 hPa 0 mm - 339 W/m² -
1787865590 29.44° C 59% 1014.6 hPa 0 mm - 356 W/m² -
1787865284 29.44° C 60% 1014.6 hPa 0 mm - 368 W/m² -
1787864981 29.44° C 63% 1014.5 hPa 0 mm - 374 W/m² -
1787864676 29.44° C 65% 1014.6 hPa 0 mm - 380 W/m² -
1787864375 28.89° C 66% 1014.4 hPa 0 mm - 393 W/m² -
1787864075 28.89° C 65% 1014.6 hPa 0 mm - 394 W/m² -
1787863773 27.22° C 65% 1014.5 hPa 0 mm - 413 W/m² -
1787863472 28.33° C 65% 1014.6 hPa 0 mm - 401 W/m² -
1787863168 29.44° C 59% 1014.8 hPa 0 mm - 393 W/m² -
1787862864 28.89° C 61% 1014.8 hPa 0 mm - 453 W/m² -
1787862564 28.33° C 65% 1014.9 hPa 0 mm - 470 W/m² -
1787862259 27.78° C 63% 1014.8 hPa 0 mm - 393 W/m² -
1787861954 29.44° C 59% 1014.9 hPa 0 mm - 113 W/m² -
1787861654 28.89° C 61% 1014.7 hPa 0 mm - 523 W/m² -
1787861351 28.33° C 62% 1014.8 hPa 0 mm - 514 W/m² -
1787861047 27.22° C 67% 1015.1 hPa 0 mm - 385 W/m² -
1787860746 27.78° C 66% 1015 hPa 0 mm - 95 W/m² -

* Rain latest hour (hover to see other rain measurements)
** Current wind speed in m/s (hover to see current wind gust speed)